Time;durP1;ratioP1;P1;durP2;ratioP2;P2;SDS_P1;SDS_P2;PMS_P1;PMS_P2;Temp;Humidity;BMP_temperature;BMP_pressure;BME280_temperature;BME280_humidity;BME280_pressure;Samples;Min_cycle;Max_cycle;Signal;HPM_P1;HPM_P2
2022/10/16 00:00:18;;;;;;;1.20;1.20;;;15.10;99.90;;;;;;5134102;28;20162;-78
2022/10/16 00:02:44;;;;;;;3.57;1.40;;;15.10;99.90;;;;;;5133943;28;20665;-78
2022/10/16 00:05:10;;;;;;;1.70;1.40;;;15.10;99.90;;;;;;5134084;28;20173;-78
2022/10/16 00:07:35;;;;;;;1.83;1.50;;;15.10;99.90;;;;;;5134278;28;20199;-78
2022/10/16 00:10:01;;;;;;;1.50;1.40;;;15.10;99.90;;;;;;5133604;28;20622;-77
2022/10/16 00:12:26;;;;;;;5.50;1.37;;;15.10;99.90;;;;;;5115369;28;20170;-79
2022/10/16 00:14:52;;;;;;;1.40;1.30;;;15.10;99.90;;;;;;5133897;28;20198;-77
2022/10/16 00:17:17;;;;;;;1.50;1.40;;;15.10;99.90;;;;;;5133917;28;20701;-78
2022/10/16 00:19:43;;;;;;;1.60;1.50;;;15.10;99.90;;;;;;5115586;28;20177;-77
2022/10/16 00:22:09;;;;;;;2.00;1.30;;;15.10;99.90;;;;;;5134745;27;20167;-78
2022/10/16 00:24:34;;;;;;;2.33;1.30;;;15.00;99.90;;;;;;5137739;27;20174;-77
2022/10/16 00:27:00;;;;;;;2.10;1.27;;;15.00;99.90;;;;;;5137764;27;20524;-77
2022/10/16 00:29:25;;;;;;;1.27;1.20;;;15.00;99.90;;;;;;5137768;27;20249;-78
2022/10/16 00:31:51;;;;;;;2.43;1.60;;;15.00;99.90;;;;;;5119134;27;20241;-78
2022/10/16 00:34:16;;;;;;;1.70;1.60;;;15.00;99.90;;;;;;5138008;27;20202;-77
2022/10/16 00:36:42;;;;;;;2.00;1.50;;;15.00;99.90;;;;;;5137532;27;20249;-77
2022/10/16 00:39:08;;;;;;;1.50;1.40;;;14.90;99.90;;;;;;5137170;27;20163;-78
2022/10/16 00:41:33;;;;;;;2.17;1.53;;;14.90;99.90;;;;;;5137513;27;20628;-77
2022/10/16 00:44:02;;;;;;;2.33;1.40;;;14.80;99.90;;;;;;5137581;27;20174;-77
2022/10/16 00:46:38;;;;;;;1.93;1.47;;;14.80;99.90;;;;;;5137316;27;20177;-78
2022/10/16 00:49:08;;;;;;;3.33;1.70;;;14.70;99.90;;;;;;5137283;27;20197;-78
2022/10/16 00:51:41;;;;;;;2.43;1.37;;;14.70;99.90;;;;;;5137313;27;20173;-77
2022/10/16 00:54:15;;;;;;;1.50;1.40;;;14.70;99.90;;;;;;5136998;27;20174;-77
2022/10/16 00:56:42;;;;;;;2.70;1.60;;;14.60;99.90;;;;;;5118849;27;20270;-78
2022/10/16 00:59:24;;;;;;;2.10;1.80;;;14.70;99.90;;;;;;5137317;27;20171;-77
2022/10/16 01:01:50;;;;;;;3.23;1.87;;;14.70;99.90;;;;;;5137079;27;20174;-78
2022/10/16 01:04:15;;;;;;;1.70;1.60;;;14.70;99.90;;;;;;5136929;27;20174;-77
2022/10/16 01:07:06;;;;;;;3.67;1.70;;;14.70;99.90;;;;;;5118654;27;20494;-77
2022/10/16 01:09:42;;;;;;;4.67;1.60;;;14.70;99.90;;;;;;5118297;27;20174;-78
2022/10/16 01:12:14;;;;;;;1.67;1.57;;;14.60;99.90;;;;;;5136854;27;20169;-78
2022/10/16 01:14:42;;;;;;;2.33;1.57;;;14.60;99.90;;;;;;5118291;27;20211;-78
2022/10/16 01:17:14;;;;;;;2.87;1.80;;;14.60;99.90;;;;;;5136898;27;20185;-78
2022/10/16 01:20:21;;;;;;;1.87;1.43;;;14.60;99.90;;;;;;5136937;27;20178;-77
2022/10/16 01:23:02;;;;;;;1.97;1.87;;;14.60;99.90;;;;;;5136385;27;20166;-78
2022/10/16 01:25:56;;;;;;;2.37;1.63;;;14.60;99.90;;;;;;5118290;27;20166;-77
2022/10/16 01:28:27;;;;;;;1.70;1.60;;;14.60;99.90;;;;;;5136617;27;20163;-77
2022/10/16 01:30:57;;;;;;;3.80;1.60;;;14.50;99.90;;;;;;5136238;27;20737;-79
2022/10/16 01:33:32;;;;;;;1.80;1.70;;;14.50;99.90;;;;;;5135810;27;20195;-78
2022/10/16 01:36:18;;;;;;;3.20;1.90;;;14.50;99.90;;;;;;5118055;27;20217;-79
2022/10/16 01:38:46;;;;;;;2.37;2.10;;;14.50;99.90;;;;;;5136511;27;20158;-78
2022/10/16 01:41:24;;;;;;;2.20;1.90;;;14.50;99.90;;;;;;5136392;27;20166;-79
2022/10/16 01:43:59;;;;;;;2.03;1.83;;;14.60;99.90;;;;;;5117948;27;20182;-77
2022/10/16 01:46:27;;;;;;;2.00;1.70;;;14.60;99.90;;;;;;5136443;27;20166;-78
2022/10/16 01:48:53;;;;;;;3.07;1.70;;;14.60;99.90;;;;;;5136262;27;20167;-79
2022/10/16 01:51:21;;;;;;;4.03;1.97;;;14.60;99.90;;;;;;5135849;27;20240;-77
2022/10/16 01:53:51;;;;;;;4.80;1.90;;;14.60;99.90;;;;;;5136206;27;20190;-77
2022/10/16 01:56:17;;;;;;;3.90;1.60;;;14.50;99.90;;;;;;5136035;27;20182;-77
2022/10/16 01:58:52;;;;;;;2.40;1.50;;;14.50;99.90;;;;;;5135968;27;20181;-77
2022/10/16 02:01:21;;;;;;;2.63;1.70;;;14.50;99.90;;;;;;5135861;27;20181;-77
2022/10/16 02:03:52;;;;;;;2.07;1.70;;;14.50;99.90;;;;;;5100895;27;20178;-79
2022/10/16 02:06:17;;;;;;;4.70;2.30;;;14.50;99.90;;;;;;5135716;27;20177;-76
2022/10/16 02:08:43;;;;;;;2.00;1.63;;;14.50;99.90;;;;;;5135711;27;20647;-78
2022/10/16 02:11:10;;;;;;;6.33;1.90;;;14.50;99.90;;;;;;5135725;27;20159;-76
2022/10/16 02:13:41;;;;;;;2.43;1.47;;;14.50;99.90;;;;;;5135672;27;20188;-78
2022/10/16 02:16:09;;;;;;;1.93;1.80;;;14.40;99.90;;;;;;5135687;27;20582;-78
2022/10/16 02:18:35;;;;;;;1.53;1.40;;;14.50;99.90;;;;;;5117209;27;20204;-78
2022/10/16 02:21:23;;;;;;;4.47;1.70;;;14.50;99.90;;;;;;5135313;27;20167;-78
2022/10/16 02:23:59;;;;;;;1.77;1.50;;;14.50;99.90;;;;;;5135503;27;20249;-78
2022/10/16 02:26:35;;;;;;;2.87;1.97;;;14.50;99.90;;;;;;5135547;27;20659;-78
2022/10/16 02:29:06;;;;;;;2.50;1.70;;;14.40;99.90;;;;;;5135494;27;20167;-78
2022/10/16 02:31:35;;;;;;;1.93;1.50;;;14.40;99.90;;;;;;5135089;27;20229;-77
2022/10/16 02:34:04;;;;;;;2.40;1.60;;;14.50;99.90;;;;;;5135304;27;20253;-78
2022/10/16 02:36:31;;;;;;;4.60;1.80;;;14.40;99.90;;;;;;5116534;27;20636;-78
2022/10/16 02:39:00;;;;;;;2.13;1.63;;;14.40;99.90;;;;;;5135445;27;20187;-78
2022/10/16 02:41:25;;;;;;;2.83;1.73;;;14.30;99.90;;;;;;5135299;27;20250;-78
2022/10/16 02:43:51;;;;;;;1.63;1.53;;;14.40;99.90;;;;;;5116854;27;20277;-78
2022/10/16 02:46:18;;;;;;;2.23;1.77;;;14.30;99.90;;;;;;5134804;27;20174;-78
2022/10/16 02:48:43;;;;;;;2.10;1.67;;;14.30;99.90;;;;;;5116138;27;20174;-78
2022/10/16 02:51:09;;;;;;;3.23;1.93;;;14.30;99.90;;;;;;5134988;27;20533;-79
2022/10/16 02:53:34;;;;;;;3.10;1.90;;;14.30;99.90;;;;;;5135029;27;20253;-78
2022/10/16 02:56:00;;;;;;;2.57;2.00;;;14.40;99.90;;;;;;5134755;27;20206;-78
2022/10/16 02:58:25;;;;;;;2.37;1.60;;;14.30;99.90;;;;;;5135022;27;20543;-78
2022/10/16 03:00:51;;;;;;;2.47;1.97;;;14.30;99.90;;;;;;5134772;27;20181;-78
2022/10/16 03:03:17;;;;;;;2.40;2.10;;;14.40;99.90;;;;;;5134428;27;20170;-78
2022/10/16 03:05:45;;;;;;;2.73;2.03;;;14.40;99.90;;;;;;5134601;27;20249;-78
2022/10/16 03:08:11;;;;;;;4.00;1.90;;;14.30;99.90;;;;;;5134756;27;20177;-78
2022/10/16 03:10:37;;;;;;;2.43;2.23;;;14.40;99.90;;;;;;5134734;27;20196;-78
2022/10/16 03:13:03;;;;;;;2.50;2.30;;;14.40;99.90;;;;;;5134597;27;20166;-78
2022/10/16 03:15:28;;;;;;;2.03;1.93;;;14.40;99.90;;;;;;5134110;27;20658;-78
2022/10/16 03:17:54;;;;;;;2.10;1.70;;;14.40;99.90;;;;;;5134406;27;20220;-78
2022/10/16 03:20:20;;;;;;;2.00;1.90;;;14.50;99.90;;;;;;5134516;27;20645;-78
2022/10/16 03:22:46;;;;;;;1.90;1.80;;;14.40;99.90;;;;;;5134435;27;20199;-78
2022/10/16 03:25:11;;;;;;;3.63;2.00;;;14.40;99.90;;;;;;5134381;27;20205;-78
2022/10/16 03:27:37;;;;;;;2.03;1.93;;;14.40;99.90;;;;;;5134666;27;20216;-78
2022/10/16 03:30:03;;;;;;;3.77;2.10;;;14.40;99.90;;;;;;5134266;27;20190;-78
2022/10/16 03:32:28;;;;;;;6.20;2.33;;;14.40;99.90;;;;;;5133898;27;20230;-78
2022/10/16 03:34:56;;;;;;;2.23;1.97;;;14.40;99.90;;;;;;5134323;27;20210;-78
2022/10/16 03:37:21;;;;;;;2.93;2.20;;;14.40;99.90;;;;;;5115716;27;20178;-78
2022/10/16 03:39:47;;;;;;;3.03;2.07;;;14.40;99.90;;;;;;5116004;27;20201;-78
2022/10/16 03:42:13;;;;;;;2.93;1.97;;;14.40;99.90;;;;;;5134199;27;20163;-79
2022/10/16 03:44:38;;;;;;;2.40;1.90;;;14.50;99.90;;;;;;5133752;27;20213;-77
2022/10/16 03:47:04;;;;;;;2.97;1.87;;;14.40;99.90;;;;;;5133941;28;20167;-77
2022/10/16 03:49:29;;;;;;;2.00;1.90;;;14.40;99.90;;;;;;5134126;28;20170;-78
2022/10/16 03:51:55;;;;;;;2.87;2.00;;;14.40;99.90;;;;;;5133965;28;20243;-78
2022/10/16 03:54:22;;;;;;;4.10;2.30;;;14.40;99.90;;;;;;5133860;28;20217;-78
2022/10/16 03:56:48;;;;;;;2.83;2.13;;;14.40;99.90;;;;;;5134473;27;20201;-77
2022/10/16 03:59:13;;;;;;;2.20;2.00;;;14.40;99.90;;;;;;5138144;27;20171;-78
2022/10/16 04:01:39;;;;;;;2.10;2.00;;;14.50;99.90;;;;;;5137782;27;20496;-78
2022/10/16 04:04:04;;;;;;;3.57;2.10;;;14.30;99.90;;;;;;5138108;27;20174;-77
2022/10/16 04:06:30;;;;;;;3.03;1.83;;;14.40;99.90;;;;;;5137907;27;20170;-77
2022/10/16 04:08:56;;;;;;;3.67;2.10;;;14.40;99.90;;;;;;5138046;27;20595;-78
2022/10/16 04:11:21;;;;;;;3.23;1.87;;;14.30;99.90;;;;;;5138109;27;20162;-78
2022/10/16 04:13:47;;;;;;;2.37;1.70;;;14.40;99.90;;;;;;5137846;27;20175;-78
2022/10/16 04:16:13;;;;;;;4.77;2.17;;;14.30;99.90;;;;;;5137324;27;20217;-78
2022/10/16 04:18:38;;;;;;;3.70;1.90;;;14.40;99.90;;;;;;5138060;27;20644;-78
2022/10/16 04:21:06;;;;;;;2.33;1.90;;;14.30;99.90;;;;;;5137903;27;20181;-78
2022/10/16 04:23:32;;;;;;;4.10;2.50;;;14.30;99.90;;;;;;5137853;27;20173;-77
2022/10/16 04:25:59;;;;;;;1.90;1.80;;;14.20;99.90;;;;;;5137688;27;20196;-77
2022/10/16 04:28:24;;;;;;;3.87;2.03;;;14.20;99.90;;;;;;5137349;27;20170;-77
2022/10/16 04:30:50;;;;;;;2.20;2.00;;;14.30;99.90;;;;;;5118712;27;20222;-77
2022/10/16 04:33:16;;;;;;;2.17;2.07;;;14.30;99.90;;;;;;5137725;27;20162;-79
2022/10/16 04:35:41;;;;;;;2.57;1.90;;;14.30;99.90;;;;;;5137264;27;20222;-78
2022/10/16 04:38:07;;;;;;;2.43;1.90;;;14.30;99.90;;;;;;5137405;27;20220;-78
2022/10/16 04:40:32;;;;;;;4.13;2.10;;;14.30;99.90;;;;;;5137694;27;20253;-78
2022/10/16 04:42:59;;;;;;;5.63;2.13;;;14.30;99.90;;;;;;5118958;27;20178;-78
2022/10/16 04:45:25;;;;;;;2.23;2.03;;;14.30;99.90;;;;;;5136725;27;20170;-78
2022/10/16 04:47:50;;;;;;;4.60;2.20;;;14.30;99.90;;;;;;5137563;27;20166;-78
2022/10/16 04:50:16;;;;;;;3.00;2.20;;;14.20;99.90;;;;;;5136770;27;20253;-78
2022/10/16 04:52:42;;;;;;;5.70;2.10;;;14.10;99.90;;;;;;5137209;27;20175;-77
2022/10/16 04:55:07;;;;;;;4.27;2.13;;;14.10;99.90;;;;;;5136879;27;20206;-78
2022/10/16 04:57:33;;;;;;;5.63;2.20;;;14.10;99.90;;;;;;5137269;27;20170;-77
2022/10/16 04:59:59;;;;;;;2.67;2.30;;;14.10;99.90;;;;;;5136732;27;20171;-78
2022/10/16 05:02:24;;;;;;;3.33;2.20;;;14.10;99.90;;;;;;5137156;27;20163;-77
2022/10/16 05:04:51;;;;;;;2.37;2.20;;;14.10;99.90;;;;;;5118467;27;20630;-77
2022/10/16 05:07:16;;;;;;;5.87;2.30;;;14.10;99.90;;;;;;5136815;27;20236;-77
2022/10/16 05:09:42;;;;;;;2.90;2.30;;;14.10;99.90;;;;;;5135249;27;20174;-77
2022/10/16 05:12:07;;;;;;;3.53;2.10;;;14.10;99.90;;;;;;5136522;27;20190;-79
2022/10/16 05:14:33;;;;;;;2.67;2.37;;;14.10;99.90;;;;;;5136175;27;20194;-78
2022/10/16 05:17:00;;;;;;;3.73;2.40;;;14.20;99.90;;;;;;5136487;27;20173;-79
2022/10/16 05:19:26;;;;;;;6.27;2.60;;;14.10;99.90;;;;;;5136674;27;20649;-78
2022/10/16 05:21:51;;;;;;;3.00;2.33;;;14.00;99.90;;;;;;5136698;27;20171;-76
2022/10/16 05:24:17;;;;;;;2.57;2.37;;;14.00;99.90;;;;;;5118256;27;20171;-78
2022/10/16 05:26:42;;;;;;;5.13;2.40;;;14.10;99.90;;;;;;5118072;27;20173;-78
2022/10/16 05:29:09;;;;;;;4.73;2.40;;;14.10;99.90;;;;;;5136004;27;20170;-78
2022/10/16 05:31:35;;;;;;;6.20;3.10;;;14.00;99.90;;;;;;5114118;28;20268;-78
2022/10/16 05:34:01;;;;;;;3.57;2.70;;;14.00;99.90;;;;;;5115820;28;20179;-78
2022/10/16 05:36:27;;;;;;;2.60;2.40;;;14.00;99.90;;;;;;5115709;28;20566;-78
2022/10/16 05:38:53;;;;;;;3.60;2.90;;;14.10;99.90;;;;;;5115569;28;20162;-78
2022/10/16 05:41:25;;;;;;;4.63;2.80;;;14.10;99.90;;;;;;5115372;28;20225;-78
2022/10/16 05:43:50;;;;;;;3.97;2.30;;;14.10;99.90;;;;;;5114176;28;20589;-79
2022/10/16 05:46:16;;;;;;;3.00;2.70;;;14.00;99.90;;;;;;5115360;28;20175;-77
2022/10/16 05:48:43;;;;;;;3.10;2.80;;;14.00;99.90;;;;;;5115428;28;20185;-77
2022/10/16 05:51:11;;;;;;;4.90;3.00;;;14.00;99.90;;;;;;5115078;28;20599;-77
2022/10/16 05:53:38;;;;;;;4.60;3.10;;;14.00;99.90;;;;;;5115207;28;20172;-77
2022/10/16 05:56:05;;;;;;;5.57;3.13;;;14.00;99.90;;;;;;5114599;28;20199;-77
2022/10/16 05:58:35;;;;;;;3.50;2.90;;;14.00;99.90;;;;;;5115009;28;20167;-77
2022/10/16 06:01:06;;;;;;;3.83;2.87;;;14.00;99.90;;;;;;5115206;28;20171;-77
2022/10/16 06:03:32;;;;;;;4.47;2.70;;;14.00;99.90;;;;;;5114109;28;20622;-79
2022/10/16 06:05:58;;;;;;;3.00;2.80;;;14.00;99.90;;;;;;5115178;28;20163;-79
2022/10/16 06:08:24;;;;;;;4.07;3.00;;;14.00;99.90;;;;;;5115367;28;20179;-78
2022/10/16 06:11:02;;;;;;;5.90;3.07;;;14.00;99.90;;;;;;5114781;28;20185;-78
2022/10/16 06:13:27;;;;;;;3.90;2.87;;;14.00;99.90;;;;;;5114179;28;20171;-78
2022/10/16 06:15:53;;;;;;;3.00;2.80;;;14.00;99.90;;;;;;5113584;28;20331;-78
2022/10/16 06:18:18;;;;;;;5.27;2.80;;;14.00;99.90;;;;;;5113545;28;20167;-78
2022/10/16 06:20:44;;;;;;;3.50;3.17;;;14.10;99.90;;;;;;5113211;28;20522;-78
2022/10/16 06:23:09;;;;;;;3.17;2.70;;;14.10;99.90;;;;;;5114808;28;20171;-78
2022/10/16 06:25:35;;;;;;;2.83;2.63;;;14.00;99.90;;;;;;5114566;28;20193;-78
2022/10/16 06:28:00;;;;;;;5.57;2.60;;;14.00;99.90;;;;;;5113111;28;20651;-79
2022/10/16 06:30:26;;;;;;;4.23;3.00;;;14.00;99.90;;;;;;5113554;27;20206;-78
2022/10/16 06:32:52;;;;;;;3.70;2.83;;;14.00;99.90;;;;;;5116496;27;20265;-78
2022/10/16 06:35:17;;;;;;;5.33;2.80;;;14.00;99.90;;;;;;5135302;27;20198;-78
2022/10/16 06:37:43;;;;;;;2.70;2.50;;;14.00;99.90;;;;;;5134898;27;20528;-78
2022/10/16 06:40:08;;;;;;;6.07;2.80;;;14.10;99.90;;;;;;5134787;27;20254;-78
2022/10/16 06:42:34;;;;;;;5.07;3.10;;;14.20;99.90;;;;;;5134905;27;20167;-78
2022/10/16 06:44:59;;;;;;;4.10;2.80;;;14.20;99.90;;;;;;5135015;27;20566;-78
2022/10/16 06:47:25;;;;;;;3.63;2.73;;;14.40;99.90;;;;;;5134782;27;20169;-78
2022/10/16 06:49:51;;;;;;;3.50;2.47;;;14.60;99.90;;;;;;5116361;27;20287;-77
2022/10/16 06:52:16;;;;;;;4.37;2.57;;;14.90;99.90;;;;;;5134501;27;20540;-77
2022/10/16 06:54:42;;;;;;;4.53;2.40;;;15.30;99.90;;;;;;5134416;27;20205;-78
2022/10/16 06:57:07;;;;;;;2.57;2.37;;;15.90;99.90;;;;;;5115864;27;20522;-78
2022/10/16 06:59:33;;;;;;;3.17;2.30;;;16.40;99.90;;;;;;5134553;27;20166;-78
2022/10/16 07:01:58;;;;;;;4.17;2.47;;;16.60;99.90;;;;;;5134713;27;20952;-79
2022/10/16 07:04:24;;;;;;;3.20;2.30;;;16.60;99.90;;;;;;5134458;27;20250;-79
2022/10/16 07:06:51;;;;;;;3.77;2.20;;;16.60;99.90;;;;;;5134385;27;20171;-79
2022/10/16 07:09:17;;;;;;;5.00;2.45;;;16.70;99.90;;;;;;5134436;27;20159;-80
2022/10/16 07:11:42;;;;;;;3.80;2.33;;;17.10;99.90;;;;;;5134091;27;20173;-81
2022/10/16 07:14:19;;;;;;;5.47;2.35;;;18.00;99.90;;;;;;5134353;27;20166;-82
2022/10/16 07:16:45;;;;;;;3.75;1.80;;;18.70;99.90;;;;;;5133849;27;20174;-81
2022/10/16 07:19:14;;;;;;;4.80;2.10;;;19.00;99.90;;;;;;5115609;27;20171;-82
2022/10/16 07:21:40;;;;;;;4.63;1.88;;;19.90;99.90;;;;;;5134352;27;20167;-79
2022/10/16 07:24:12;;;;;;;2.90;1.95;;;20.70;99.90;;;;;;5134083;27;20514;-80
2022/10/16 07:26:39;;;;;;;2.03;1.88;;;21.80;99.90;;;;;;5135083;27;20261;-80
2022/10/16 07:29:06;;;;;;;2.67;2.15;;;22.70;99.90;;;;;;5134128;27;20219;-80
2022/10/16 07:31:33;;;;;;;2.13;2.00;;;23.80;99.90;;;;;;5132995;27;20260;-80
2022/10/16 07:34:01;;;;;;;3.88;1.85;;;23.70;99.60;;;;;;5134256;27;20169;-80
2022/10/16 07:36:27;;;;;;;2.70;1.83;;;23.60;99.90;;;;;;5134202;27;20213;-79
2022/10/16 07:38:53;;;;;;;2.30;2.10;;;23.80;99.90;;;;;;5133637;27;20171;-80
2022/10/16 07:41:19;;;;;;;1.92;1.80;;;24.20;98.20;;;;;;5133932;27;20249;-81
2022/10/16 07:43:50;;;;;;;4.40;2.03;;;24.60;97.80;;;;;;5133687;27;20198;-82
2022/10/16 07:46:17;;;;;;;4.18;1.85;;;24.10;97.90;;;;;;5133607;28;20163;-81
2022/10/16 07:48:46;;;;;;;2.58;1.83;;;25.00;97.20;;;;;;5133409;28;20174;-81
2022/10/16 07:51:13;;;;;;;1.73;1.63;;;24.90;96.10;;;;;;5133919;28;20245;-81
2022/10/16 07:53:39;;;;;;;4.22;1.90;;;24.80;96.10;;;;;;5133268;28;20210;-82
2022/10/16 07:56:06;;;;;;;4.70;2.60;;;24.40;96.40;;;;;;5132934;28;20218;-82
2022/10/16 07:58:33;;;;;;;4.25;1.80;;;25.10;96.60;;;;;;5133204;28;20194;-81
2022/10/16 08:01:04;;;;;;;2.78;1.90;;;25.90;94.30;;;;;;5115386;28;20171;-82
2022/10/16 08:03:29;;;;;;;2.38;1.77;;;26.20;92.40;;;;;;5133497;28;20167;-82
2022/10/16 08:05:57;;;;;;;2.85;1.70;;;26.30;92.80;;;;;;5133558;28;20245;-82
2022/10/16 08:08:22;;;;;;;2.33;1.70;;;27.10;90.80;;;;;;5133849;28;20262;-80
2022/10/16 08:10:48;;;;;;;2.10;1.50;;;25.80;91.70;;;;;;5133825;28;20241;-81
2022/10/16 08:13:14;;;;;;;2.67;2.00;;;26.40;91.70;;;;;;5133523;28;20186;-81
2022/10/16 08:15:41;;;;;;;3.55;2.13;;;26.20;91.80;;;;;;5133076;28;20237;-83
2022/10/16 08:18:07;;;;;;;2.58;1.60;;;26.40;91.50;;;;;;5133128;28;20171;-82
2022/10/16 08:20:33;;;;;;;3.28;2.00;;;26.20;91.40;;;;;;5133512;28;20167;-81
2022/10/16 08:23:00;;;;;;;4.75;2.05;;;25.90;91.70;;;;;;5132734;28;20239;-82
2022/10/16 08:25:26;;;;;;;2.45;1.67;;;26.60;91.50;;;;;;5114782;28;20171;-82
2022/10/16 08:27:51;;;;;;;3.80;1.80;;;27.10;86.80;;;;;;5133252;28;20162;-83
2022/10/16 08:30:19;;;;;;;3.17;1.77;;;27.10;87.70;;;;;;5133284;28;20677;-82
2022/10/16 08:32:44;;;;;;;2.03;1.73;;;26.60;90.00;;;;;;5133208;28;20215;-83
2022/10/16 08:35:12;;;;;;;1.45;1.30;;;27.40;85.80;;;;;;5133274;28;20524;-83
2022/10/16 08:37:38;;;;;;;3.22;1.60;;;27.10;1.00;;;;;;5133125;28;20171;-83
2022/10/16 08:40:11;;;;;;;5.38;1.92;;;27.00;1.00;;;;;;5115280;28;20234;-82
2022/10/16 08:42:55;;;;;;;3.05;1.77;;;27.30;1.00;;;;;;5114707;27;20182;-82
2022/10/16 08:45:49;;;;;;;4.90;1.60;;;27.60;1.00;;;;;;5136988;27;20197;-82
2022/10/16 08:48:34;;;;;;;2.35;1.45;;;27.00;1.00;;;;;;5139248;27;20173;-82
2022/10/16 08:51:02;;;;;;;2.58;1.70;;;27.10;1.00;;;;;;5141372;27;20155;-82
2022/10/16 08:53:33;;;;;;;3.03;1.60;;;27.20;1.00;;;;;;5138923;27;20171;-82
2022/10/16 08:55:59;;;;;;;2.60;1.80;;;27.50;1.00;;;;;;5118579;27;20206;-83
2022/10/16 08:58:30;;;;;;;3.15;1.60;;;28.30;1.00;;;;;;5139904;27;20245;-82
2022/10/16 09:01:02;;;;;;;2.55;1.60;;;27.80;1.00;;;;;;5123512;27;20174;-83
2022/10/16 09:03:55;;;;;;;5.25;1.80;;;28.60;1.00;;;;;;5136533;27;20487;-83
2022/10/16 09:06:20;;;;;;;2.92;1.63;;;28.60;99.90;;;;;;5136521;27;20219;-82
2022/10/16 09:09:11;;;;;;;3.67;1.70;;;29.10;99.90;;;;;;5118126;27;20662;-82
2022/10/16 09:12:10;;;;;;;1.77;1.50;;;28.70;99.90;;;;;;5136590;27;20652;-82
2022/10/16 09:14:59;;;;;;;2.15;1.50;;;27.70;1.00;;;;;;5136427;27;20190;-81
2022/10/16 09:17:33;;;;;;;3.85;1.55;;;27.40;1.00;;;;;;5136282;27;20249;-81
2022/10/16 09:20:01;;;;;;;2.85;1.65;;;26.70;1.00;;;;;;5136580;27;20621;-82
2022/10/16 09:22:28;;;;;;;2.90;1.45;;;27.50;1.00;;;;;;5136139;27;20167;-82
2022/10/16 09:24:59;;;;;;;3.85;1.83;;;27.40;1.00;;;;;;5136126;27;20179;-82
2022/10/16 09:27:25;;;;;;;3.72;2.00;;;27.90;1.00;;;;;;5136474;27;20171;-82
2022/10/16 09:29:51;;;;;;;2.33;1.63;;;28.20;99.90;;;;;;5136386;27;20198;-82
2022/10/16 09:32:20;;;;;;;2.42;1.40;;;28.50;99.90;;;;;;5136258;27;20342;-83
2022/10/16 09:34:50;;;;;;;2.28;1.30;;;27.80;99.90;;;;;;5135784;27;20677;-83
2022/10/16 09:37:19;;;;;;;1.35;1.25;;;28.00;99.90;;;;;;5136254;27;20177;-83
2022/10/16 09:39:52;;;;;;;3.05;1.30;;;28.40;99.90;;;;;;5135656;27;20174;-84
2022/10/16 09:42:32;;;;;;;3.22;1.55;;;28.30;99.90;;;;;;5136144;27;20319;-83
2022/10/16 09:44:58;;;;;;;1.52;1.33;;;28.50;99.90;;;;;;5136088;27;20159;-83
2022/10/16 09:47:27;;;;;;;4.57;1.70;;;28.20;99.90;;;;;;5117139;27;20175;-84
2022/10/16 09:49:57;;;;;;;2.25;1.48;;;28.40;99.90;;;;;;5135804;27;20162;-84
2022/10/16 09:52:24;;;;;;;1.85;1.50;;;27.60;99.90;;;;;;5122091;27;20661;-83
2022/10/16 09:54:51;;;;;;;3.67;1.63;;;26.80;1.00;;;;;;5138413;27;20202;-84
2022/10/16 09:57:17;;;;;;;3.63;2.20;;;26.80;1.00;;;;;;5136782;27;20171;-83
2022/10/16 09:59:51;;;;;;;4.10;1.77;;;26.40;1.00;;;;;;5137016;27;20254;-83
2022/10/16 10:02:20;;;;;;;2.13;1.33;;;26.80;1.00;;;;;;5137493;27;20182;-83
2022/10/16 10:04:56;;;;;;;2.20;1.63;;;27.30;1.00;;;;;;5140768;27;20202;-82
2022/10/16 10:07:35;;;;;;;2.80;1.50;;;26.40;1.00;;;;;;5117315;27;20219;-84
2022/10/16 10:10:04;;;;;;;1.95;1.20;;;26.60;1.00;;;;;;5135604;27;20198;-83
2022/10/16 10:12:32;;;;;;;4.15;1.40;;;26.10;1.00;;;;;;5135033;27;20216;-84
2022/10/16 10:15:07;;;;;;;2.35;1.20;;;25.70;1.00;;;;;;5134973;27;20206;-84
2022/10/16 10:17:32;;;;;;;2.40;1.70;;;25.70;83.10;;;;;;5117911;27;20170;-84
2022/10/16 10:20:22;;;;;;;4.35;1.90;;;25.20;84.20;;;;;;5134769;27;20189;-83
2022/10/16 10:22:47;;;;;;;2.17;1.60;;;26.10;85.80;;;;;;5141869;27;20167;-84
2022/10/16 10:25:13;;;;;;;3.28;1.65;;;27.10;1.00;;;;;;5131601;27;20183;-83
2022/10/16 10:27:50;;;;;;;2.47;1.58;;;27.60;1.00;;;;;;5137423;27;20172;-84
2022/10/16 10:30:37;;;;;;;2.70;1.27;;;27.70;1.00;;;;;;5138522;27;20206;-85
2022/10/16 10:33:15;;;;;;;3.33;1.75;;;26.40;1.00;;;;;;5114512;28;20248;-85
2022/10/16 10:35:58;;;;;;;2.08;1.35;;;26.70;1.00;;;;;;5117342;28;20222;-84
2022/10/16 10:38:38;;;;;;;2.65;1.30;;;26.40;1.00;;;;;;5130034;28;20163;-84
2022/10/16 10:41:22;;;;;;;3.83;1.80;;;26.60;1.00;;;;;;5127447;28;20159;-83
2022/10/16 10:43:57;;;;;;;4.97;1.42;;;27.00;1.00;;;;;;5129859;28;20639;-83
2022/10/16 10:46:31;;;;;;;3.85;1.50;;;27.60;1.00;;;;;;5129219;28;20159;-84
2022/10/16 10:49:19;;;;;;;2.17;1.50;;;27.80;99.90;;;;;;5124064;28;20699;-85
2022/10/16 10:52:10;;;;;;;4.18;1.90;;;27.80;99.90;;;;;;5125731;28;20175;-84
2022/10/16 10:55:10;;;;;;;3.70;1.75;;;27.70;99.90;;;;;;5124247;28;20247;-85
2022/10/16 10:58:01;;;;;;;4.82;1.60;;;27.10;99.90;;;;;;5120121;28;20250;-84
2022/10/16 11:00:50;;;;;;;3.47;1.58;;;27.30;99.90;;;;;;5119572;28;20202;-87
2022/10/16 11:03:32;;;;;;;2.88;1.58;;;27.50;99.90;;;;;;5114450;28;20197;-86
2022/10/16 11:06:26;;;;;;;1.60;1.20;;;26.40;99.90;;;;;;5130753;28;20143;-83
2022/10/16 11:09:21;;;;;;;2.08;1.40;;;25.60;1.00;;;;;;5127234;28;20611;-85
2022/10/16 11:11:54;;;;;;;2.25;1.42;;;25.90;1.00;;;;;;5113041;28;20179;-85
2022/10/16 11:14:29;;;;;;;2.42;1.60;;;25.50;1.00;;;;;;5115027;28;20164;-85
2022/10/16 11:17:01;;;;;;;3.20;1.38;;;24.80;5.50;;;;;;5117186;28;20185;-82
2022/10/16 11:20:03;;;;;;;4.68;1.65;;;25.00;85.90;;;;;;5115788;28;20178;-85
2022/10/16 11:22:39;;;;;;;2.67;1.67;;;25.20;84.20;;;;;;5115536;28;20166;-84
2022/10/16 11:25:26;;;;;;;2.70;1.85;;;26.10;1.00;;;;;;5112561;28;20535;-84
2022/10/16 11:27:55;;;;;;;2.92;1.20;;;25.90;1.00;;;;;;5113506;28;20302;-84
2022/10/16 11:30:27;;;;;;;2.00;1.38;;;25.50;1.00;;;;;;5113385;28;20198;-84
2022/10/16 11:33:08;;;;;;;1.60;1.30;;;25.40;1.00;;;;;;5113434;28;20172;-83
2022/10/16 11:35:51;;;;;;;3.47;1.52;;;25.50;1.00;;;;;;5113053;28;20297;-83
2022/10/16 11:38:49;;;;;;;2.28;1.42;;;24.90;1.00;;;;;;5113331;28;20702;-84
2022/10/16 11:41:24;;;;;;;1.45;1.35;;;25.00;1.00;;;;;;5030571;28;20592;-84
2022/10/16 11:44:15;;;;;;;2.47;1.70;;;24.60;99.90;;;;;;5030820;28;20249;-83
2022/10/16 11:46:48;;;;;;;3.03;1.48;;;23.80;90.10;;;;;;5030415;28;20178;-84
2022/10/16 11:49:23;;;;;;;2.58;1.38;;;24.10;89.80;;;;;;5030224;28;20205;-81
2022/10/16 11:52:06;;;;;;;2.20;1.50;;;23.80;89.80;;;;;;5030714;28;20248;-79
2022/10/16 11:54:59;;;;;;;2.40;1.70;;;23.60;90.50;;;;;;5030840;28;20185;-80
2022/10/16 11:57:29;;;;;;;4.25;1.80;;;23.20;91.50;;;;;;5030300;28;20260;-79
2022/10/16 12:00:05;;;;;;;3.15;2.00;;;22.60;93.90;;;;;;5030247;28;20269;-80
2022/10/16 12:02:38;;;;;;;2.97;1.90;;;22.70;95.10;;;;;;5030226;28;20216;-80
2022/10/16 12:05:26;;;;;;;1.67;1.40;;;22.60;94.80;;;;;;5030598;28;20174;-80
2022/10/16 12:08:06;;;;;;;4.78;1.90;;;22.20;94.70;;;;;;5030301;28;20606;-80
2022/10/16 12:10:36;;;;;;;5.32;1.50;;;22.00;95.90;;;;;;5030058;28;20228;-81
2022/10/16 12:13:03;;;;;;;2.00;1.23;;;22.10;96.10;;;;;;5029432;28;20193;-81
2022/10/16 12:15:32;;;;;;;5.60;1.85;;;22.30;96.20;;;;;;5013857;28;20276;-82
2022/10/16 12:17:58;;;;;;;2.10;1.13;;;22.60;1.00;;;;;;5067552;28;20182;-81
2022/10/16 12:20:26;;;;;;;3.65;1.40;;;22.50;99.90;;;;;;5116928;28;20171;-81
2022/10/16 12:22:56;;;;;;;1.25;1.15;;;22.20;99.90;;;;;;5116624;28;20169;-80
2022/10/16 12:25:28;;;;;;;2.15;1.10;;;22.00;1.00;;;;;;5117170;28;20181;-80
2022/10/16 12:28:19;;;;;;;2.15;1.35;;;21.50;1.00;;;;;;5117008;28;20163;-80
2022/10/16 12:30:53;;;;;;;2.92;1.60;;;21.70;1.00;;;;;;5109535;27;20206;-80
2022/10/16 12:33:31;;;;;;;3.42;1.40;;;22.00;99.90;;;;;;5138031;27;20166;-81
2022/10/16 12:35:59;;;;;;;4.95;3.05;;;22.10;1.00;;;;;;5136677;27;20217;-81
2022/10/16 12:38:50;;;;;;;4.47;1.58;;;22.30;18.00;;;;;;5137321;27;20583;-80
2022/10/16 12:41:45;;;;;;;2.03;1.38;;;22.30;99.90;;;;;;5137279;27;20174;-82
2022/10/16 12:44:26;;;;;;;3.70;1.60;;;22.50;99.90;;;;;;5033319;28;20328;-81
2022/10/16 12:46:51;;;;;;;3.47;1.60;;;22.60;1.00;;;;;;5033843;28;20181;-80
2022/10/16 12:49:32;;;;;;;4.03;1.50;;;22.50;99.90;;;;;;5034273;28;20240;-80
2022/10/16 12:51:58;;;;;;;2.20;1.40;;;22.30;1.00;;;;;;5033347;28;20226;-80
2022/10/16 12:54:35;;;;;;;2.47;1.40;;;21.60;1.00;;;;;;5033584;28;20182;-80
2022/10/16 12:57:09;;;;;;;1.38;1.10;;;21.30;99.90;;;;;;5034062;28;20237;-79
2022/10/16 12:59:54;;;;;;;1.42;0.93;;;20.80;99.90;;;;;;5033243;28;20256;-80
2022/10/16 13:02:44;;;;;;;1.60;0.85;;;20.70;1.00;;;;;;5032738;28;20301;-80
2022/10/16 13:05:57;;;;;;;4.20;0.85;;;20.60;1.00;;;;;;5016340;28;20174;-80